Nearby METAR Reports

 

GCLP - Las Palmas/Gando, Spain
Distance from station: NE 26km
Updated: 21/04/2019 14:30
Few Clouds
Few Clouds
 Wind from NNE
Wind: NNE 33 km/h
Temperature: 24°C
Dew Point: 12°C
Humidity: 47%
Barometer: 1015 hPa
Clouds: Few Clouds
Visibility: 10 km
Cloud details: Few Clouds 1219 m
2019/04/21 14:30 GCLP 211430Z 02018KT 340V050 9999 FEW040 24/12 Q1015 NOSIG
GCTS - Tenerife Sur/Rei, Spain
Distance from station: WNW 102km
Updated: 21/04/2019 14:30
Mostly cloudy
Mostly cloudy
 Wind from varies
Wind: varies 7 km/h
Temperature: 21°C
Dew Point: 12°C
Humidity: 57%
Barometer: 1016 hPa
Clouds: Mostly cloudy
Visibility: 10 km
Cloud details: Few Clouds 762 m
Mostly cloudy 1097 m
2019/04/21 14:30 GCTS 211430Z VRB04KT 9999 FEW025 BKN036 21/12 Q1016 NOSIG
 
GCXO - Tenerife/Los Rod, Spain
Distance from station: NW 110km
Updated: 21/04/2019 14:30
Partly cloudy
Partly cloudy
 Wind from WNW
Wind: WNW 33 km/h
Temperature: 19°C
Dew Point: 11°C
Humidity: 60%
Barometer: 1017 hPa
Clouds: Partly cloudy
Visibility: 10 km
Cloud details: Few Clouds 427 m
Partly cloudy 549 m
2019/04/21 14:30 GCXO 211430Z 30018KT 9999 FEW014 SCT018 19/11 Q1017
GCGM - La Gomera Arpt, Spain
Distance from station: W 164km
Updated: 21/04/2019 14:30
Few Clouds
Few Clouds
 Wind from SW
Wind: SW 13 km/h
Temperature: 22°C
Dew Point: 12°C
Humidity: 53%
Barometer: 1017 hPa
Clouds: Few Clouds
Visibility: 10 km
Cloud details: Few Clouds 1067 m
2019/04/21 14:30 GCGM 211430Z 22007KT 160V260 9999 FEW035 22/12 Q1017 RMK R09/VRB05KT ARP/21006KT 170V260
 
GCFV - Fuerteventura Ar, Spain
Distance from station: ENE 183km
Updated: 21/04/2019 14:30
Partly cloudy
Partly cloudy
 Wind from N
Wind: N 30 km/h
Temperature: 23°C
Dew Point: 12°C
Humidity: 50%
Barometer: 1014 hPa
Clouds: Partly cloudy
Visibility: 10 km
Cloud details: Few Clouds 1280 m
Partly cloudy 1433 m
2019/04/21 14:30 GCFV 211430Z 36016KT 9999 FEW042 SCT047 23/12 Q1014
GCHI - Hierro Airport, Spain
Distance from station: W 226km
Updated: 21/04/2019 14:30
Few Clouds
Few Clouds
 Wind from NNE
Wind: NNE 30 km/h
Temperature: 22°C
Dew Point: 15°C
Humidity: 65%
Barometer: 1017 hPa
Clouds: Few Clouds
Visibility: 10 km
Cloud details: Few Clouds 762 m
2019/04/21 14:30 GCHI 211430Z 02016KT 350V050 9999 FEW025 22/15 Q1017
 
GCLA - La Palma Airport, Spain
Distance from station: WNW 233km
Updated: 21/04/2019 14:30
Few Clouds
Few Clouds
 Wind from NNE
Wind: NNE 28 km/h
Temperature: 22°C
Dew Point: 15°C
Humidity: 65%
Barometer: 1017 hPa
Clouds: Few Clouds
Visibility: 10 km
Cloud details: Few Clouds 762 m
2019/04/21 14:30 GCLA 211430Z 03015KT 350V060 9999 FEW025 22/15 Q1017
GCRR - Arrecife/Lanzaro, Spain
Distance from station: NE 234km
Updated: 21/04/2019 14:30
Partly cloudy
Partly cloudy
 Wind from N
Wind: N 24 km/h
Temperature: 22°C
Dew Point: 13°C
Humidity: 57%
Barometer: 1015 hPa
Clouds: Partly cloudy
Visibility: 10 km
Cloud details: Few Clouds 1067 m
Partly cloudy 1219 m
2019/04/21 14:30 GCRR 211430Z 35013KT 320V020 9999 FEW035 SCT040 22/13 Q1015
 
LPMA - Funchal/Madeira, Portugal
Distance from station: NNW 556km
Updated: 21/04/2019 14:30
Few Clouds
Few Clouds
 Wind from varies
Wind: varies 11 km/h
Temperature: 21°C
Dew Point: 14°C
Humidity: 64%
Barometer: 1016 hPa
Clouds: Few Clouds
Visibility: 10 km
Cloud details: Few Clouds 457 m
2019/04/21 14:30 LPMA 211430Z VRB06KT 9999 FEW015 21/14 Q1016
LPPS - Porto Santo Isla, Portugal
Distance from station: N 594km
Updated: 21/04/2019 14:30
Mostly cloudy
Mostly cloudy
 Wind from NNW
Wind: NNW 35 km/h
Temperature: 19°C
Dew Point: 13°C
Humidity: 68%
Barometer: 1017 hPa
Clouds: Mostly cloudy
Visibility: 10 km
Cloud details: Partly cloudy 457 m
Mostly cloudy 914 m
2019/04/21 14:30 LPPS 211430Z 33019KT 9999 SCT015 BKN030 19/13 Q1017